createdAt,value
2023-05-20T00:00:54.821Z,6.30
2023-05-20T00:03:21.877Z,6.60
2023-05-20T00:05:49.068Z,6.30
2023-05-20T00:08:15.932Z,6.60
2023-05-20T00:10:43.948Z,5.90
2023-05-20T00:13:11.056Z,5.80
2023-05-20T00:15:38.028Z,6.80
2023-05-20T00:18:04.935Z,6.60
2023-05-20T00:20:32.631Z,6.60
2023-05-20T00:23:00.592Z,7.60
2023-05-20T00:25:28.415Z,6.60
2023-05-20T00:27:55.419Z,6.70
2023-05-20T00:30:22.474Z,6.60
2023-05-20T00:32:49.591Z,6.00
2023-05-20T00:35:16.578Z,6.70
2023-05-20T00:37:44.530Z,7.30
2023-05-20T00:40:13.088Z,6.80
2023-05-20T00:42:45.128Z,6.80
2023-05-20T00:45:13.075Z,6.70
2023-05-20T00:47:41.149Z,6.90
2023-05-20T00:50:10.391Z,6.70
2023-05-20T00:52:39.527Z,6.00
2023-05-20T00:55:07.497Z,6.50
2023-05-20T00:57:34.436Z,6.70
2023-05-20T01:00:01.606Z,6.50
2023-05-20T01:02:28.902Z,6.40
2023-05-20T01:04:56.940Z,7.10
2023-05-20T01:07:23.969Z,6.70
2023-05-20T01:09:52.562Z,6.30
2023-05-20T01:12:40.473Z,6.70
2023-05-20T01:15:11.349Z,7.10
2023-05-20T01:17:47.079Z,6.10
2023-05-20T01:20:15.318Z,6.40
2023-05-20T01:22:49.461Z,6.20
2023-05-20T01:25:20.144Z,6.40
2023-05-20T01:27:49.392Z,6.20
2023-05-20T01:30:16.447Z,5.40
2023-05-20T01:32:49.755Z,6.60
2023-05-20T01:35:18.110Z,7.00
2023-05-20T01:37:44.978Z,6.60
2023-05-20T01:40:15.204Z,6.00
2023-05-20T01:42:46.753Z,6.30
2023-05-20T01:45:17.058Z,6.10
2023-05-20T01:47:46.015Z,6.20
2023-05-20T01:50:12.997Z,6.20
2023-05-20T01:52:40.315Z,5.30
2023-05-20T01:55:07.497Z,6.10
2023-05-20T01:57:34.406Z,6.10
2023-05-20T02:00:01.386Z,5.90
2023-05-20T02:02:28.870Z,6.50
2023-05-20T02:04:55.912Z,5.20
2023-05-20T02:07:24.937Z,5.90
2023-05-20T02:09:54.503Z,5.70
2023-05-20T02:12:21.470Z,5.30
2023-05-20T02:14:48.457Z,5.60
2023-05-20T02:17:18.127Z,5.50
2023-05-20T02:19:46.940Z,5.90
2023-05-20T02:22:14.513Z,5.30
2023-05-20T02:24:43.815Z,5.40
2023-05-20T02:27:10.924Z,6.10
2023-05-20T02:29:37.898Z,4.90
2023-05-20T02:32:07.120Z,6.00
2023-05-20T02:34:34.092Z,5.40
2023-05-20T02:37:02.263Z,4.90
2023-05-20T02:39:31.625Z,5.50
2023-05-20T02:41:59.654Z,5.00
2023-05-20T02:44:26.581Z,4.60
2023-05-20T02:46:55.017Z,4.80
2023-05-20T02:49:24.380Z,5.10
2023-05-20T02:51:52.296Z,5.30
2023-05-20T02:54:19.411Z,6.10
2023-05-20T02:56:47.415Z,5.20
2023-05-20T02:59:16.911Z,5.90
2023-05-20T03:01:45.008Z,5.40
2023-05-20T03:04:12.804Z,5.00
2023-05-20T03:06:44.773Z,5.50
2023-05-20T03:09:12.942Z,4.80
2023-05-20T03:11:40.200Z,4.90
2023-05-20T03:14:07.104Z,5.20
2023-05-20T03:16:35.567Z,4.90
2023-05-20T03:19:06.481Z,5.50
2023-05-20T03:21:35.683Z,4.60
2023-05-20T03:24:02.542Z,4.80
2023-05-20T03:26:34.032Z,4.70
2023-05-20T03:29:00.985Z,4.90
2023-05-20T03:31:27.993Z,5.00
2023-05-20T03:33:55.950Z,4.40
2023-05-20T03:36:22.907Z,4.80
2023-05-20T03:38:50.480Z,4.50
2023-05-20T03:41:18.598Z,4.60
2023-05-20T03:43:45.522Z,4.60
2023-05-20T03:46:12.519Z,4.30
2023-05-20T03:48:39.513Z,5.20
2023-05-20T03:51:07.356Z,4.80
2023-05-20T03:53:35.754Z,4.60
2023-05-20T03:56:02.672Z,5.20
2023-05-20T03:58:31.369Z,5.10
2023-05-20T04:00:59.416Z,4.90
2023-05-20T04:03:29.296Z,5.30
2023-05-20T04:06:03.716Z,5.10
2023-05-20T04:08:31.718Z,5.70
2023-05-20T04:10:58.805Z,5.60
2023-05-20T04:13:25.821Z,5.80
2023-05-20T04:15:53.855Z,4.80
2023-05-20T04:18:21.409Z,4.90
2023-05-20T04:20:48.506Z,5.70
2023-05-20T04:23:15.623Z,5.90
2023-05-20T04:25:44.817Z,5.80
2023-05-20T04:28:14.294Z,4.10
2023-05-20T04:30:42.525Z,5.90
2023-05-20T04:33:12.347Z,5.70
2023-05-20T04:35:42.328Z,5.60
2023-05-20T04:38:09.681Z,5.20
2023-05-20T04:40:37.656Z,5.80
2023-05-20T04:43:06.142Z,5.20
2023-05-20T04:45:36.877Z,5.50
2023-05-20T04:48:06.235Z,5.70
2023-05-20T04:50:37.997Z,6.10
2023-05-20T04:53:08.057Z,5.40
2023-05-20T04:55:37.560Z,5.20
2023-05-20T04:58:04.476Z,5.60
2023-05-20T05:00:32.444Z,4.80
2023-05-20T05:03:00.232Z,5.70
2023-05-20T05:05:28.384Z,5.30
2023-05-20T05:07:56.398Z,5.50
2023-05-20T05:10:25.484Z,5.90
2023-05-20T05:12:52.519Z,5.30
2023-05-20T05:15:19.508Z,5.30
2023-05-20T05:17:47.634Z,4.50
2023-05-20T05:20:16.799Z,5.30
2023-05-20T05:22:44.219Z,5.00
2023-05-20T05:25:11.733Z,5.40
2023-05-20T05:27:39.824Z,4.70
2023-05-20T05:30:08.562Z,5.10
2023-05-20T05:32:36.982Z,4.80
2023-05-20T05:35:06.698Z,4.30
2023-05-20T05:37:35.357Z,4.50
2023-05-20T05:40:02.442Z,4.30
2023-05-20T05:42:29.850Z,4.00
2023-05-20T05:44:56.997Z,5.10
2023-05-20T05:47:29.848Z,4.10
2023-05-20T05:49:56.900Z,4.90
2023-05-20T05:52:23.884Z,5.50
2023-05-20T05:54:50.773Z,4.60
2023-05-20T05:57:21.284Z,4.70
2023-05-20T05:59:48.292Z,4.90
2023-05-20T06:02:16.639Z,3.90
2023-05-20T06:04:50.459Z,4.00
2023-05-20T06:07:17.996Z,4.30
2023-05-20T06:09:45.259Z,4.30
2023-05-20T06:12:14.018Z,4.30
2023-05-20T06:14:41.919Z,4.00
2023-05-20T06:17:08.812Z,4.70
2023-05-20T06:19:37.022Z,4.40
2023-05-20T06:22:04.254Z,4.40
2023-05-20T06:24:33.485Z,3.70
2023-05-20T06:27:03.412Z,3.80
2023-05-20T06:29:31.542Z,4.90
2023-05-20T06:31:58.509Z,3.40
2023-05-20T06:34:28.539Z,4.50
2023-05-20T06:36:56.851Z,4.00
2023-05-20T06:39:23.845Z,3.60
2023-05-20T06:41:52.463Z,3.00
2023-05-20T06:44:31.217Z,3.50
2023-05-20T06:47:33.562Z,3.80
2023-05-20T06:50:02.866Z,4.20
2023-05-20T06:52:30.697Z,5.70
2023-05-20T06:54:57.841Z,4.90
2023-05-20T06:57:25.861Z,4.60
2023-05-20T06:59:53.021Z,5.10
2023-05-20T07:02:22.299Z,4.50
2023-05-20T07:04:51.361Z,4.80
2023-05-20T07:07:19.093Z,4.20
2023-05-20T07:09:46.989Z,3.10
2023-05-20T07:12:14.095Z,4.10
2023-05-20T07:14:41.186Z,4.00
2023-05-20T07:17:08.370Z,4.60
2023-05-20T07:19:39.258Z,3.70
2023-05-20T07:22:08.064Z,3.70
2023-05-20T07:24:43.371Z,3.70
2023-05-20T07:27:10.936Z,4.40
2023-05-20T07:29:38.136Z,4.60
2023-05-20T07:32:09.370Z,4.70
2023-05-20T07:34:37.933Z,3.10
2023-05-20T07:37:06.356Z,4.50
2023-05-20T07:39:34.430Z,4.40
2023-05-20T07:42:01.536Z,4.90
2023-05-20T07:44:28.646Z,3.60
2023-05-20T07:46:56.272Z,3.30
2023-05-20T07:49:28.410Z,3.80
2023-05-20T07:51:55.530Z,4.50
2023-05-20T07:54:23.398Z,5.20
2023-05-20T07:56:52.287Z,4.40
2023-05-20T07:59:19.376Z,4.20
2023-05-20T08:01:48.566Z,5.30
2023-05-20T08:04:18.063Z,5.60
2023-05-20T08:06:46.973Z,4.30
2023-05-20T08:09:21.903Z,8.10
2023-05-20T08:11:50.921Z,5.40
2023-05-20T08:14:17.840Z,4.20
2023-05-20T08:16:52.985Z,6.00
2023-05-20T08:19:23.096Z,3.90
2023-05-20T08:21:54.891Z,5.00
2023-05-20T08:24:22.142Z,3.80
2023-05-20T08:26:49.317Z,3.90
2023-05-20T08:29:17.909Z,4.40
2023-05-20T08:31:44.944Z,3.20
2023-05-20T08:34:12.770Z,3.40
2023-05-20T08:36:42.641Z,3.30
2023-05-20T08:39:11.299Z,3.50
2023-05-20T08:41:39.452Z,3.30
2023-05-20T08:44:08.979Z,3.30
2023-05-20T08:46:37.273Z,3.50
2023-05-20T08:49:04.743Z,3.60
2023-05-20T08:51:32.143Z,2.70
2023-05-20T08:54:02.829Z,2.60
2023-05-20T08:56:31.070Z,3.10
2023-05-20T08:58:59.958Z,3.10
2023-05-20T09:01:27.080Z,3.00
2023-05-20T09:03:54.234Z,3.30
2023-05-20T09:06:21.394Z,2.80
2023-05-20T09:09:14.677Z,3.00
2023-05-20T09:11:42.806Z,3.30
2023-05-20T09:14:10.882Z,2.90
2023-05-20T09:16:40.415Z,3.10
2023-05-20T09:19:07.796Z,2.90
2023-05-20T09:21:35.873Z,2.80
2023-05-20T09:24:04.024Z,3.00
2023-05-20T09:26:31.605Z,3.10
2023-05-20T09:30:59.447Z,3.40
2023-05-20T09:33:32.394Z,2.90
2023-05-20T09:36:08.410Z,3.10
2023-05-20T09:38:38.741Z,2.90
2023-05-20T09:41:13.478Z,2.80
2023-05-20T09:43:43.254Z,3.00
2023-05-20T09:46:12.272Z,2.80
2023-05-20T09:48:39.082Z,3.10
2023-05-20T09:51:08.419Z,3.00
2023-05-20T09:53:36.441Z,2.20
2023-05-20T09:56:04.608Z,2.40
2023-05-20T09:58:33.789Z,2.80
2023-05-20T10:01:02.022Z,2.90
2023-05-20T10:03:29.676Z,2.60
2023-05-20T10:06:38.315Z,3.00
2023-05-20T10:09:10.036Z,2.80
2023-05-20T10:12:03.636Z,2.20
2023-05-20T10:14:45.544Z,3.40
2023-05-20T10:17:14.796Z,4.30
2023-05-20T10:19:41.651Z,2.90
2023-05-20T10:22:09.684Z,3.00
2023-05-20T10:24:42.545Z,3.00
2023-05-20T10:27:15.187Z,2.80
2023-05-20T10:29:50.695Z,2.40
2023-05-20T10:32:28.694Z,3.20
2023-05-20T10:35:00.985Z,2.80
2023-05-20T10:37:29.936Z,3.20
2023-05-20T10:40:11.287Z,3.80
2023-05-20T10:42:40.121Z,3.30
2023-05-20T10:45:07.733Z,3.90
2023-05-20T10:47:35.168Z,3.50
2023-05-20T10:50:07.914Z,3.80
2023-05-20T10:52:36.303Z,3.60
2023-05-20T10:55:06.079Z,3.00
2023-05-20T10:57:33.835Z,3.30
2023-05-20T11:00:04.594Z,3.10
2023-05-20T11:02:34.141Z,3.40
2023-05-20T11:05:04.116Z,3.00
2023-05-20T11:07:31.489Z,2.90
2023-05-20T11:09:58.632Z,3.20
2023-05-20T11:12:26.401Z,3.30
2023-05-20T11:14:56.370Z,3.00
2023-05-20T11:17:23.318Z,3.20
2023-05-20T11:19:50.427Z,2.90
2023-05-20T11:22:17.994Z,2.50
2023-05-20T11:24:45.935Z,3.10
2023-05-20T11:27:15.095Z,3.20
2023-05-20T11:29:43.406Z,3.40
2023-05-20T11:32:10.542Z,2.80
2023-05-20T11:34:38.624Z,2.40
2023-05-20T11:37:09.657Z,2.70
2023-05-20T11:39:37.323Z,2.80
2023-05-20T11:42:05.697Z,2.60
2023-05-20T11:44:32.635Z,3.00
2023-05-20T11:47:02.681Z,3.00
2023-05-20T11:49:33.088Z,3.10
2023-05-20T11:52:00.501Z,3.40
2023-05-20T11:54:27.707Z,3.60
2023-05-20T11:56:55.532Z,3.50
2023-05-20T11:59:23.547Z,3.10
2023-05-20T12:01:50.202Z,3.00
2023-05-20T12:04:17.977Z,3.20
2023-05-20T12:06:45.243Z,3.20
2023-05-20T12:09:13.384Z,3.30
2023-05-20T12:11:40.851Z,2.80
2023-05-20T12:14:09.700Z,3.20
2023-05-20T12:16:37.986Z,3.10
2023-05-20T12:19:05.150Z,3.60
2023-05-20T12:21:33.414Z,2.90
2023-05-20T12:24:00.422Z,2.80
2023-05-20T12:26:28.012Z,4.20
2023-05-20T12:28:55.637Z,3.20
2023-05-20T12:31:25.661Z,3.00
2023-05-20T12:33:55.827Z,3.10
2023-05-20T12:36:22.680Z,3.20
2023-05-20T12:38:49.616Z,2.90
2023-05-20T12:41:17.001Z,3.00
2023-05-20T12:43:44.755Z,3.00
2023-05-20T12:46:11.495Z,2.80
2023-05-20T12:48:39.952Z,2.80
2023-05-20T12:51:08.194Z,2.80
2023-05-20T12:53:35.880Z,2.70
2023-05-20T12:56:02.905Z,2.80
2023-05-20T12:58:31.624Z,3.40
2023-05-20T13:00:58.810Z,3.00
2023-05-20T13:03:26.625Z,2.60
2023-05-20T13:05:53.450Z,2.70
2023-05-20T13:08:21.221Z,2.70
2023-05-20T13:10:49.014Z,2.50
2023-05-20T13:13:21.300Z,2.50
2023-05-20T13:15:50.819Z,3.00
2023-05-20T13:18:18.913Z,3.10
2023-05-20T13:20:46.514Z,2.70
2023-05-20T13:23:14.455Z,2.30
2023-05-20T13:25:42.361Z,2.70
2023-05-20T13:28:12.554Z,2.20
2023-05-20T13:30:40.014Z,2.60
2023-05-20T13:33:07.286Z,3.60
2023-05-20T13:35:35.795Z,2.40
2023-05-20T13:38:02.964Z,2.80
2023-05-20T13:40:31.467Z,2.70
2023-05-20T13:42:58.270Z,2.80
2023-05-20T13:45:25.111Z,2.40
2023-05-20T13:47:55.488Z,2.50
2023-05-20T13:50:22.745Z,2.00
2023-05-20T13:52:53.652Z,2.60
2023-05-20T13:55:22.737Z,1.90
2023-05-20T13:57:54.224Z,2.30
2023-05-20T14:00:21.330Z,2.40
2023-05-20T14:02:48.402Z,2.30
2023-05-20T14:05:15.211Z,2.50
2023-05-20T14:07:44.650Z,2.40
2023-05-20T14:10:11.922Z,2.70
2023-05-20T14:12:39.536Z,2.20
2023-05-20T14:15:06.884Z,1.90
2023-05-20T14:17:34.016Z,2.10
2023-05-20T14:20:00.858Z,1.80
2023-05-20T14:22:28.711Z,2.20
2023-05-20T14:24:55.838Z,2.70
2023-05-20T14:27:22.553Z,2.30
2023-05-20T14:29:49.460Z,2.30
2023-05-20T14:32:16.251Z,2.10
2023-05-20T14:34:43.057Z,2.90
2023-05-20T14:37:11.454Z,1.90
2023-05-20T14:39:38.739Z,2.20
2023-05-20T14:42:05.463Z,2.30
2023-05-20T14:44:32.252Z,1.70
2023-05-20T14:46:59.018Z,1.40
2023-05-20T14:49:25.842Z,1.80
2023-05-20T14:51:52.527Z,2.10
2023-05-20T14:54:24.365Z,2.20
2023-05-20T14:56:53.949Z,2.40
2023-05-20T14:59:20.931Z,1.90
2023-05-20T15:01:47.876Z,2.00
2023-05-20T15:04:14.978Z,1.80
2023-05-20T15:06:43.210Z,1.60
2023-05-20T15:09:11.248Z,2.10
2023-05-20T15:11:38.029Z,1.80
2023-05-20T15:14:05.130Z,2.50
2023-05-20T15:16:32.275Z,1.90
2023-05-20T15:18:59.141Z,1.80
2023-05-20T15:21:25.906Z,2.10
2023-05-20T15:23:52.872Z,2.40
2023-05-20T15:26:19.606Z,2.20
2023-05-20T15:28:46.591Z,2.90
2023-05-20T15:31:13.376Z,3.00
2023-05-20T15:33:40.645Z,2.20
2023-05-20T15:36:07.785Z,2.30
2023-05-20T15:38:35.848Z,2.30
2023-05-20T15:41:02.705Z,2.40
2023-05-20T15:43:30.194Z,2.90
2023-05-20T15:45:57.020Z,2.60
2023-05-20T15:48:23.855Z,1.90
2023-05-20T15:50:50.571Z,1.90
2023-05-20T15:53:43.517Z,1.40
2023-05-20T15:56:13.249Z,2.30
2023-05-20T15:58:40.460Z,2.20
2023-05-20T16:01:10.540Z,2.20
2023-05-20T16:03:39.024Z,2.40
2023-05-20T16:06:06.865Z,1.50
2023-05-20T16:08:36.747Z,2.40
2023-05-20T16:11:04.277Z,2.90
2023-05-20T16:13:32.496Z,2.00
2023-05-20T16:15:59.374Z,2.40
2023-05-20T16:18:29.220Z,2.10
2023-05-20T16:20:58.274Z,2.20
2023-05-20T16:23:25.129Z,2.50
2023-05-20T16:25:51.966Z,2.40
2023-05-20T16:28:19.352Z,2.50
2023-05-20T16:30:46.225Z,2.30
2023-05-20T16:33:13.326Z,2.40
2023-05-20T16:35:40.293Z,2.30
2023-05-20T16:38:08.258Z,2.60
2023-05-20T16:40:36.656Z,2.30
2023-05-20T16:43:03.416Z,2.30
2023-05-20T16:45:30.262Z,2.40
2023-05-20T16:47:57.798Z,2.90
2023-05-20T16:50:25.873Z,2.20
2023-05-20T16:52:53.793Z,2.80
2023-05-20T16:55:21.899Z,2.60
2023-05-20T16:57:50.630Z,2.20
2023-05-20T17:00:17.989Z,2.40
2023-05-20T17:02:46.530Z,2.80
2023-05-20T17:05:14.651Z,2.30
2023-05-20T17:07:43.938Z,2.80
2023-05-20T17:10:11.711Z,2.40
2023-05-20T17:12:39.494Z,3.20
2023-05-20T17:15:10.164Z,2.70
2023-05-20T17:17:36.977Z,2.40
2023-05-20T17:20:04.813Z,2.50
2023-05-20T17:22:37.576Z,2.60
2023-05-20T17:25:05.270Z,2.90
2023-05-20T17:27:32.930Z,2.30
2023-05-20T17:30:00.316Z,3.20
2023-05-20T17:32:28.201Z,3.00
2023-05-20T17:34:55.259Z,2.70
2023-05-20T17:37:22.219Z,3.20
2023-05-20T17:39:49.197Z,3.00
2023-05-20T17:42:16.128Z,2.70
2023-05-20T17:44:43.127Z,3.00
2023-05-20T17:47:09.748Z,2.50
2023-05-20T17:49:37.081Z,3.10
2023-05-20T17:52:04.092Z,2.80
2023-05-20T17:54:32.964Z,2.60
2023-05-20T17:56:59.749Z,2.70
2023-05-20T17:59:26.552Z,3.20
2023-05-20T18:01:53.241Z,3.10
2023-05-20T18:04:22.193Z,3.20
2023-05-20T18:06:49.692Z,3.30
2023-05-20T18:09:17.967Z,3.10
2023-05-20T18:11:45.638Z,3.20
2023-05-20T18:14:12.809Z,3.30
2023-05-20T18:16:40.037Z,3.10
2023-05-20T18:19:07.017Z,3.20
2023-05-20T18:21:35.158Z,3.00
2023-05-20T18:24:02.092Z,3.40
2023-05-20T18:26:31.158Z,3.20
2023-05-20T18:28:57.957Z,3.00
2023-05-20T18:31:26.794Z,3.40
2023-05-20T18:33:53.422Z,4.30
2023-05-20T18:36:20.405Z,3.70
2023-05-20T18:38:47.426Z,3.70
2023-05-20T18:41:14.314Z,4.00
2023-05-20T18:43:41.145Z,3.80
2023-05-20T18:46:08.957Z,3.80
2023-05-20T18:48:35.947Z,3.80
2023-05-20T18:51:02.916Z,3.80
2023-05-20T18:53:30.119Z,3.80
2023-05-20T18:56:00.711Z,3.50
2023-05-20T18:58:29.179Z,3.70
2023-05-20T19:00:56.016Z,3.50
2023-05-20T19:03:24.707Z,3.00
2023-05-20T19:05:51.500Z,2.70
2023-05-20T19:08:18.646Z,3.60
2023-05-20T19:10:47.080Z,3.20
2023-05-20T19:13:16.103Z,3.50
2023-05-20T19:15:43.186Z,3.50
2023-05-20T19:18:10.757Z,3.40
2023-05-20T19:20:37.402Z,2.80
2023-05-20T19:23:08.475Z,3.40
2023-05-20T19:25:36.434Z,3.20
2023-05-20T19:28:03.595Z,3.50
2023-05-20T19:30:30.466Z,3.70
2023-05-20T19:32:57.376Z,2.80
2023-05-20T19:35:24.065Z,3.00
2023-05-20T19:37:53.084Z,3.10
2023-05-20T19:40:20.619Z,2.80
2023-05-20T19:42:51.254Z,3.50
2023-05-20T19:45:22.919Z,3.30
2023-05-20T19:47:50.728Z,3.00
2023-05-20T19:50:19.605Z,2.90
2023-05-20T19:52:46.399Z,2.90
2023-05-20T19:55:13.510Z,2.90
2023-05-20T19:57:40.345Z,3.00
2023-05-20T20:00:10.767Z,2.80
2023-05-20T20:02:43.552Z,3.60
2023-05-20T20:05:12.544Z,3.10
2023-05-20T20:07:40.270Z,3.10
2023-05-20T20:10:08.089Z,3.60
2023-05-20T20:12:35.126Z,3.80
2023-05-20T20:15:02.898Z,3.00
2023-05-20T20:17:30.213Z,4.30
2023-05-20T20:19:57.470Z,4.20
2023-05-20T20:22:24.206Z,5.50
2023-05-20T20:25:09.708Z,5.00
2023-05-20T20:27:37.908Z,4.60
2023-05-20T20:30:05.652Z,3.30
2023-05-20T20:32:33.095Z,5.30
2023-05-20T20:35:00.911Z,4.80
2023-05-20T20:37:27.645Z,4.60
2023-05-20T20:39:54.624Z,3.40
2023-05-20T20:42:22.438Z,5.30
2023-05-20T20:44:51.993Z,4.70
2023-05-20T20:47:18.684Z,4.80
2023-05-20T20:49:45.428Z,4.30
2023-05-20T20:52:12.111Z,5.70
2023-05-20T20:54:40.128Z,4.50
2023-05-20T20:57:08.274Z,4.60
2023-05-20T20:59:34.848Z,4.30
2023-05-20T21:02:02.734Z,4.60
2023-05-20T21:04:30.567Z,4.60
2023-05-20T21:07:01.705Z,4.90
2023-05-20T21:09:29.270Z,5.50
2023-05-20T21:11:56.642Z,4.60
2023-05-20T21:14:23.530Z,4.50
2023-05-20T21:16:50.386Z,4.70
2023-05-20T21:19:17.046Z,5.30
2023-05-20T21:21:44.369Z,5.00
2023-05-20T21:24:10.900Z,5.10
2023-05-20T21:26:37.494Z,5.30
2023-05-20T21:29:05.398Z,5.60
2023-05-20T21:31:32.091Z,5.20
2023-05-20T21:33:58.845Z,4.20
2023-05-20T21:36:25.475Z,3.60
2023-05-20T21:38:52.192Z,3.20
2023-05-20T21:41:18.812Z,4.40
2023-05-20T21:43:45.563Z,4.70
2023-05-20T21:48:32.602Z,4.80
2023-05-20T21:50:59.241Z,5.30
2023-05-20T21:53:25.878Z,4.80
2023-05-20T21:55:52.546Z,4.40
2023-05-20T21:58:19.489Z,5.10
2023-05-20T22:00:46.219Z,4.80
2023-05-20T22:03:14.033Z,4.50
2023-05-20T22:05:45.375Z,3.50
2023-05-20T22:08:13.466Z,3.60
2023-05-20T22:10:40.225Z,4.10
2023-05-20T22:13:10.298Z,4.60
2023-05-20T22:15:37.614Z,3.60
2023-05-20T22:18:07.471Z,4.70
2023-05-20T22:20:38.088Z,4.10
2023-05-20T22:23:05.843Z,5.30
2023-05-20T22:25:33.494Z,4.40
2023-05-20T22:28:00.850Z,3.50
2023-05-20T22:30:27.989Z,4.80
2023-05-20T22:33:00.789Z,3.70
2023-05-20T22:35:27.521Z,2.60
2023-05-20T22:37:56.679Z,3.10
2023-05-20T22:40:23.336Z,4.00
2023-05-20T22:42:50.019Z,4.10
2023-05-20T22:45:16.786Z,2.60
2023-05-20T22:47:45.630Z,3.90
2023-05-20T22:50:13.002Z,4.40
2023-05-20T22:52:41.092Z,2.80
2023-05-20T22:55:08.511Z,3.10
2023-05-20T22:57:36.318Z,2.70
2023-05-20T23:00:04.371Z,3.40
2023-05-20T23:02:32.101Z,3.50
2023-05-20T23:04:58.808Z,3.80
2023-05-20T23:07:26.439Z,4.10
2023-05-20T23:09:53.099Z,4.80
2023-05-20T23:12:20.758Z,3.70
2023-05-20T23:14:48.117Z,2.40
2023-05-20T23:17:15.488Z,2.60
2023-05-20T23:19:42.283Z,2.30
2023-05-20T23:22:09.005Z,3.50
2023-05-20T23:24:35.937Z,3.00
2023-05-20T23:27:04.124Z,2.60
2023-05-20T23:29:31.083Z,2.70
2023-05-20T23:31:58.738Z,2.50
2023-05-20T23:34:26.780Z,3.20
2023-05-20T23:36:53.453Z,1.80
2023-05-20T23:39:21.173Z,2.80
2023-05-20T23:41:47.964Z,2.00
2023-05-20T23:44:14.694Z,3.10
2023-05-20T23:46:41.558Z,2.80
2023-05-20T23:49:09.607Z,2.60
2023-05-20T23:51:36.188Z,2.90
2023-05-20T23:54:02.829Z,2.90
2023-05-20T23:56:29.705Z,2.70
2023-05-20T23:58:57.596Z,2.40
